sensor_id;sensor_type;location;lat;lon;timestamp;P1;durP1;ratioP1;P2;durP2;ratioP2
43809;SDS011;29440;48.208;11.162;2024-03-02T00:01:53;18.95;;;12.23;;
43809;SDS011;29440;48.208;11.162;2024-03-02T00:04:19;19.27;;;12.48;;
43809;SDS011;29440;48.208;11.162;2024-03-02T00:06:45;19.52;;;12.98;;
43809;SDS011;29440;48.208;11.162;2024-03-02T00:09:10;19.80;;;11.77;;
43809;SDS011;29440;48.208;11.162;2024-03-02T00:11:37;18.23;;;12.15;;
43809;SDS011;29440;48.208;11.162;2024-03-02T00:14:03;20.23;;;12.68;;
43809;SDS011;29440;48.208;11.162;2024-03-02T00:16:32;20.73;;;13.25;;
43809;SDS011;29440;48.208;11.162;2024-03-02T00:19:02;21.13;;;13.45;;
43809;SDS011;29440;48.208;11.162;2024-03-02T00:21:29;19.52;;;13.13;;
43809;SDS011;29440;48.208;11.162;2024-03-02T00:23:56;20.52;;;13.50;;
43809;SDS011;29440;48.208;11.162;2024-03-02T00:26:22;21.00;;;13.52;;
43809;SDS011;29440;48.208;11.162;2024-03-02T00:28:47;22.23;;;13.88;;
43809;SDS011;29440;48.208;11.162;2024-03-02T00:31:15;19.23;;;12.48;;
43809;SDS011;29440;48.208;11.162;2024-03-02T00:33:44;21.20;;;12.52;;
43809;SDS011;29440;48.208;11.162;2024-03-02T00:36:17;18.52;;;12.20;;
43809;SDS011;29440;48.208;11.162;2024-03-02T00:38:50;20.00;;;12.25;;
43809;SDS011;29440;48.208;11.162;2024-03-02T00:41:25;18.58;;;12.15;;
43809;SDS011;29440;48.208;11.162;2024-03-02T00:43:56;18.52;;;12.93;;
43809;SDS011;29440;48.208;11.162;2024-03-02T00:46:31;21.58;;;12.68;;
43809;SDS011;29440;48.208;11.162;2024-03-02T00:49:21;18.80;;;11.98;;
43809;SDS011;29440;48.208;11.162;2024-03-02T00:51:48;16.77;;;11.77;;
43809;SDS011;29440;48.208;11.162;2024-03-02T00:54:25;19.33;;;11.70;;
43809;SDS011;29440;48.208;11.162;2024-03-02T00:56:52;15.73;;;10.87;;
43809;SDS011;29440;48.208;11.162;2024-03-02T00:59:20;17.90;;;11.32;;
43809;SDS011;29440;48.208;11.162;2024-03-02T01:01:47;17.63;;;11.30;;
43809;SDS011;29440;48.208;11.162;2024-03-02T01:04:14;19.02;;;11.40;;
43809;SDS011;29440;48.208;11.162;2024-03-02T01:06:40;17.45;;;11.35;;
43809;SDS011;29440;48.208;11.162;2024-03-02T01:09:07;16.70;;;9.88;;
43809;SDS011;29440;48.208;11.162;2024-03-02T01:11:32;17.63;;;11.50;;
43809;SDS011;29440;48.208;11.162;2024-03-02T01:13:58;15.35;;;10.10;;
43809;SDS011;29440;48.208;11.162;2024-03-02T01:16:24;15.23;;;10.07;;
43809;SDS011;29440;48.208;11.162;2024-03-02T01:18:49;20.98;;;11.48;;
43809;SDS011;29440;48.208;11.162;2024-03-02T01:21:15;16.85;;;11.02;;
43809;SDS011;29440;48.208;11.162;2024-03-02T01:23:41;16.40;;;10.90;;
43809;SDS011;29440;48.208;11.162;2024-03-02T01:26:07;17.88;;;10.80;;
43809;SDS011;29440;48.208;11.162;2024-03-02T01:28:33;19.75;;;10.88;;
43809;SDS011;29440;48.208;11.162;2024-03-02T01:30:59;18.23;;;11.07;;
43809;SDS011;29440;48.208;11.162;2024-03-02T01:33:25;16.02;;;11.55;;
43809;SDS011;29440;48.208;11.162;2024-03-02T01:35:50;19.98;;;12.18;;
43809;SDS011;29440;48.208;11.162;2024-03-02T01:38:16;19.63;;;11.73;;
43809;SDS011;29440;48.208;11.162;2024-03-02T01:40:42;21.58;;;12.60;;
43809;SDS011;29440;48.208;11.162;2024-03-02T01:43:09;18.90;;;12.50;;
43809;SDS011;29440;48.208;11.162;2024-03-02T01:45:35;21.38;;;12.68;;
43809;SDS011;29440;48.208;11.162;2024-03-02T01:48:02;16.10;;;11.13;;
43809;SDS011;29440;48.208;11.162;2024-03-02T01:50:34;18.77;;;12.30;;
43809;SDS011;29440;48.208;11.162;2024-03-02T01:53:00;20.83;;;12.27;;
43809;SDS011;29440;48.208;11.162;2024-03-02T01:55:30;18.48;;;11.88;;
43809;SDS011;29440;48.208;11.162;2024-03-02T01:57:55;23.70;;;13.52;;
43809;SDS011;29440;48.208;11.162;2024-03-02T02:00:22;19.42;;;12.13;;
43809;SDS011;29440;48.208;11.162;2024-03-02T02:02:49;24.45;;;12.77;;
43809;SDS011;29440;48.208;11.162;2024-03-02T02:05:15;21.58;;;13.15;;
43809;SDS011;29440;48.208;11.162;2024-03-02T02:07:41;21.20;;;12.68;;
43809;SDS011;29440;48.208;11.162;2024-03-02T02:10:08;19.20;;;11.80;;
43809;SDS011;29440;48.208;11.162;2024-03-02T02:12:34;18.92;;;11.48;;
43809;SDS011;29440;48.208;11.162;2024-03-02T02:15:03;17.40;;;10.55;;
43809;SDS011;29440;48.208;11.162;2024-03-02T02:17:46;16.92;;;10.20;;
43809;SDS011;29440;48.208;11.162;2024-03-02T02:20:11;15.52;;;10.10;;
43809;SDS011;29440;48.208;11.162;2024-03-02T02:22:37;16.15;;;9.80;;
43809;SDS011;29440;48.208;11.162;2024-03-02T02:25:02;17.60;;;10.25;;
43809;SDS011;29440;48.208;11.162;2024-03-02T02:27:28;16.15;;;10.32;;
43809;SDS011;29440;48.208;11.162;2024-03-02T02:29:54;15.45;;;9.65;;
43809;SDS011;29440;48.208;11.162;2024-03-02T02:32:21;14.63;;;9.48;;
43809;SDS011;29440;48.208;11.162;2024-03-02T02:34:46;14.88;;;9.18;;
43809;SDS011;29440;48.208;11.162;2024-03-02T02:37:16;15.13;;;9.85;;
43809;SDS011;29440;48.208;11.162;2024-03-02T02:39:42;14.50;;;9.40;;
43809;SDS011;29440;48.208;11.162;2024-03-02T02:42:09;19.23;;;10.52;;
43809;SDS011;29440;48.208;11.162;2024-03-02T02:44:35;15.57;;;10.27;;
43809;SDS011;29440;48.208;11.162;2024-03-02T02:47:00;17.45;;;10.68;;
43809;SDS011;29440;48.208;11.162;2024-03-02T02:49:26;18.52;;;9.95;;
43809;SDS011;29440;48.208;11.162;2024-03-02T02:51:52;16.45;;;10.45;;
43809;SDS011;29440;48.208;11.162;2024-03-02T02:54:17;16.33;;;10.82;;
43809;SDS011;29440;48.208;11.162;2024-03-02T02:56:43;16.23;;;10.25;;
43809;SDS011;29440;48.208;11.162;2024-03-02T02:59:09;18.30;;;11.20;;
43809;SDS011;29440;48.208;11.162;2024-03-02T03:01:34;19.65;;;12.25;;
43809;SDS011;29440;48.208;11.162;2024-03-02T03:04:00;16.85;;;10.88;;
43809;SDS011;29440;48.208;11.162;2024-03-02T03:06:25;18.58;;;11.38;;
43809;SDS011;29440;48.208;11.162;2024-03-02T03:08:51;17.83;;;11.05;;
43809;SDS011;29440;48.208;11.162;2024-03-02T03:11:16;25.30;;;11.80;;
43809;SDS011;29440;48.208;11.162;2024-03-02T03:13:42;18.33;;;11.15;;
43809;SDS011;29440;48.208;11.162;2024-03-02T03:16:07;17.27;;;11.32;;
43809;SDS011;29440;48.208;11.162;2024-03-02T03:18:33;19.45;;;11.68;;
43809;SDS011;29440;48.208;11.162;2024-03-02T03:20:59;21.15;;;12.15;;
43809;SDS011;29440;48.208;11.162;2024-03-02T03:23:24;17.80;;;11.00;;
43809;SDS011;29440;48.208;11.162;2024-03-02T03:25:50;20.88;;;11.30;;
43809;SDS011;29440;48.208;11.162;2024-03-02T03:28:16;19.08;;;11.70;;
43809;SDS011;29440;48.208;11.162;2024-03-02T03:30:42;21.02;;;12.63;;
43809;SDS011;29440;48.208;11.162;2024-03-02T03:33:08;18.27;;;11.73;;
43809;SDS011;29440;48.208;11.162;2024-03-02T03:35:34;21.83;;;12.20;;
43809;SDS011;29440;48.208;11.162;2024-03-02T03:37:59;22.90;;;13.85;;
43809;SDS011;29440;48.208;11.162;2024-03-02T03:40:28;19.80;;;11.57;;
43809;SDS011;29440;48.208;11.162;2024-03-02T03:42:54;19.63;;;12.55;;
43809;SDS011;29440;48.208;11.162;2024-03-02T03:45:21;18.27;;;11.38;;
43809;SDS011;29440;48.208;11.162;2024-03-02T03:47:46;20.23;;;11.35;;
43809;SDS011;29440;48.208;11.162;2024-03-02T03:50:12;22.88;;;13.65;;
43809;SDS011;29440;48.208;11.162;2024-03-02T03:52:38;21.75;;;13.40;;
43809;SDS011;29440;48.208;11.162;2024-03-02T03:55:03;26.35;;;14.60;;
43809;SDS011;29440;48.208;11.162;2024-03-02T03:57:30;23.20;;;14.80;;
43809;SDS011;29440;48.208;11.162;2024-03-02T03:59:58;22.80;;;13.30;;
43809;SDS011;29440;48.208;11.162;2024-03-02T04:02:25;22.25;;;13.00;;
43809;SDS011;29440;48.208;11.162;2024-03-02T04:04:51;21.80;;;13.70;;
43809;SDS011;29440;48.208;11.162;2024-03-02T04:07:16;22.92;;;13.15;;
43809;SDS011;29440;48.208;11.162;2024-03-02T04:09:42;22.50;;;13.18;;
43809;SDS011;29440;48.208;11.162;2024-03-02T04:12:08;22.90;;;13.73;;
43809;SDS011;29440;48.208;11.162;2024-03-02T04:14:33;24.58;;;13.05;;
43809;SDS011;29440;48.208;11.162;2024-03-02T04:16:59;24.98;;;13.25;;
43809;SDS011;29440;48.208;11.162;2024-03-02T04:19:25;24.20;;;13.23;;
43809;SDS011;29440;48.208;11.162;2024-03-02T04:21:50;25.20;;;14.20;;
43809;SDS011;29440;48.208;11.162;2024-03-02T04:24:16;23.73;;;13.07;;
43809;SDS011;29440;48.208;11.162;2024-03-02T04:26:42;24.30;;;13.93;;
43809;SDS011;29440;48.208;11.162;2024-03-02T04:29:07;24.70;;;14.77;;
43809;SDS011;29440;48.208;11.162;2024-03-02T04:31:33;24.38;;;14.02;;
43809;SDS011;29440;48.208;11.162;2024-03-02T04:33:58;24.35;;;13.60;;
43809;SDS011;29440;48.208;11.162;2024-03-02T04:36:24;23.92;;;13.35;;
43809;SDS011;29440;48.208;11.162;2024-03-02T04:38:49;24.70;;;13.73;;
43809;SDS011;29440;48.208;11.162;2024-03-02T04:41:15;21.98;;;13.60;;
43809;SDS011;29440;48.208;11.162;2024-03-02T04:43:42;25.33;;;13.70;;
43809;SDS011;29440;48.208;11.162;2024-03-02T04:46:07;22.58;;;13.95;;
43809;SDS011;29440;48.208;11.162;2024-03-02T04:48:33;25.65;;;14.43;;
43809;SDS011;29440;48.208;11.162;2024-03-02T04:50:59;25.35;;;15.10;;
43809;SDS011;29440;48.208;11.162;2024-03-02T04:53:25;23.55;;;15.18;;
43809;SDS011;29440;48.208;11.162;2024-03-02T04:55:50;25.73;;;14.57;;
43809;SDS011;29440;48.208;11.162;2024-03-02T04:58:19;23.58;;;14.02;;
43809;SDS011;29440;48.208;11.162;2024-03-02T05:00:44;21.67;;;13.50;;
43809;SDS011;29440;48.208;11.162;2024-03-02T05:03:11;21.33;;;12.98;;
43809;SDS011;29440;48.208;11.162;2024-03-02T05:05:38;22.85;;;13.52;;
43809;SDS011;29440;48.208;11.162;2024-03-02T05:08:04;22.17;;;13.10;;
43809;SDS011;29440;48.208;11.162;2024-03-02T05:10:30;21.35;;;12.60;;
43809;SDS011;29440;48.208;11.162;2024-03-02T05:12:55;21.20;;;13.07;;
43809;SDS011;29440;48.208;11.162;2024-03-02T05:15:24;19.23;;;12.02;;
43809;SDS011;29440;48.208;11.162;2024-03-02T05:17:50;21.33;;;12.60;;
43809;SDS011;29440;48.208;11.162;2024-03-02T05:20:16;18.63;;;11.48;;
43809;SDS011;29440;48.208;11.162;2024-03-02T05:22:42;20.30;;;12.43;;
43809;SDS011;29440;48.208;11.162;2024-03-02T05:25:07;18.90;;;11.88;;
43809;SDS011;29440;48.208;11.162;2024-03-02T05:27:34;17.10;;;10.95;;
43809;SDS011;29440;48.208;11.162;2024-03-02T05:30:00;18.15;;;11.50;;
43809;SDS011;29440;48.208;11.162;2024-03-02T05:32:26;21.25;;;12.57;;
43809;SDS011;29440;48.208;11.162;2024-03-02T05:34:52;21.05;;;13.45;;
43809;SDS011;29440;48.208;11.162;2024-03-02T05:37:17;20.88;;;12.40;;
43809;SDS011;29440;48.208;11.162;2024-03-02T05:42:32;22.58;;;12.60;;
43809;SDS011;29440;48.208;11.162;2024-03-02T05:44:57;19.42;;;12.50;;
43809;SDS011;29440;48.208;11.162;2024-03-02T05:47:23;20.17;;;12.57;;
43809;SDS011;29440;48.208;11.162;2024-03-02T05:49:48;22.10;;;13.20;;
43809;SDS011;29440;48.208;11.162;2024-03-02T05:52:14;20.40;;;12.57;;
43809;SDS011;29440;48.208;11.162;2024-03-02T05:54:39;22.08;;;12.60;;
43809;SDS011;29440;48.208;11.162;2024-03-02T05:57:05;26.70;;;11.88;;
43809;SDS011;29440;48.208;11.162;2024-03-02T05:59:52;18.13;;;11.07;;
43809;SDS011;29440;48.208;11.162;2024-03-02T06:02:18;20.60;;;12.02;;
43809;SDS011;29440;48.208;11.162;2024-03-02T06:04:44;18.38;;;11.43;;
43809;SDS011;29440;48.208;11.162;2024-03-02T06:07:09;17.88;;;11.32;;
43809;SDS011;29440;48.208;11.162;2024-03-02T06:09:35;16.25;;;11.00;;
43809;SDS011;29440;48.208;11.162;2024-03-02T06:12:00;18.45;;;10.93;;
43809;SDS011;29440;48.208;11.162;2024-03-02T06:14:26;18.90;;;11.25;;
43809;SDS011;29440;48.208;11.162;2024-03-02T06:16:51;18.40;;;11.07;;
43809;SDS011;29440;48.208;11.162;2024-03-02T06:19:17;24.02;;;11.85;;
43809;SDS011;29440;48.208;11.162;2024-03-02T06:21:42;21.30;;;12.18;;
43809;SDS011;29440;48.208;11.162;2024-03-02T06:24:08;19.50;;;11.63;;
43809;SDS011;29440;48.208;11.162;2024-03-02T06:26:34;35.17;;;11.55;;
43809;SDS011;29440;48.208;11.162;2024-03-02T06:28:59;82.25;;;13.93;;
43809;SDS011;29440;48.208;11.162;2024-03-02T06:31:27;73.38;;;13.52;;
43809;SDS011;29440;48.208;11.162;2024-03-02T06:33:52;35.55;;;10.85;;
43809;SDS011;29440;48.208;11.162;2024-03-02T06:36:18;43.20;;;11.68;;
43809;SDS011;29440;48.208;11.162;2024-03-02T06:38:43;42.47;;;12.80;;
43809;SDS011;29440;48.208;11.162;2024-03-02T06:41:09;42.42;;;12.57;;
43809;SDS011;29440;48.208;11.162;2024-03-02T06:43:35;35.25;;;11.05;;
43809;SDS011;29440;48.208;11.162;2024-03-02T06:46:00;32.10;;;11.75;;
43809;SDS011;29440;48.208;11.162;2024-03-02T06:48:26;34.20;;;11.43;;
43809;SDS011;29440;48.208;11.162;2024-03-02T06:50:53;20.98;;;11.35;;
43809;SDS011;29440;48.208;11.162;2024-03-02T06:53:19;17.70;;;11.13;;
43809;SDS011;29440;48.208;11.162;2024-03-02T06:55:46;84.32;;;13.45;;
43809;SDS011;29440;48.208;11.162;2024-03-02T06:58:12;110.90;;;14.05;;
43809;SDS011;29440;48.208;11.162;2024-03-02T07:00:40;91.60;;;12.73;;
43809;SDS011;29440;48.208;11.162;2024-03-02T07:03:05;39.08;;;10.38;;
43809;SDS011;29440;48.208;11.162;2024-03-02T07:05:31;22.90;;;8.23;;
43809;SDS011;29440;48.208;11.162;2024-03-02T07:07:57;32.42;;;8.45;;
43809;SDS011;29440;48.208;11.162;2024-03-02T07:10:22;20.23;;;6.25;;
43809;SDS011;29440;48.208;11.162;2024-03-02T07:12:48;8.18;;;5.70;;
43809;SDS011;29440;48.208;11.162;2024-03-02T07:15:13;9.90;;;6.70;;
43809;SDS011;29440;48.208;11.162;2024-03-02T07:18:09;11.35;;;7.10;;
43809;SDS011;29440;48.208;11.162;2024-03-02T07:23:35;8.95;;;6.72;;
43809;SDS011;29440;48.208;11.162;2024-03-02T07:26:01;7.45;;;5.70;;
43809;SDS011;29440;48.208;11.162;2024-03-02T07:28:27;8.32;;;6.68;;
43809;SDS011;29440;48.208;11.162;2024-03-02T07:31:00;8.35;;;6.13;;
43809;SDS011;29440;48.208;11.162;2024-03-02T07:33:26;7.68;;;6.07;;
43809;SDS011;29440;48.208;11.162;2024-03-02T07:35:52;6.40;;;5.32;;
43809;SDS011;29440;48.208;11.162;2024-03-02T07:38:19;5.85;;;4.93;;
43809;SDS011;29440;48.208;11.162;2024-03-02T07:40:45;6.00;;;4.80;;
43809;SDS011;29440;48.208;11.162;2024-03-02T07:43:10;6.88;;;5.80;;
43809;SDS011;29440;48.208;11.162;2024-03-02T07:45:36;6.70;;;5.63;;
43809;SDS011;29440;48.208;11.162;2024-03-02T07:48:02;6.63;;;5.55;;
43809;SDS011;29440;48.208;11.162;2024-03-02T07:50:30;6.35;;;5.18;;
43809;SDS011;29440;48.208;11.162;2024-03-02T07:52:56;6.82;;;5.57;;
43809;SDS011;29440;48.208;11.162;2024-03-02T07:55:21;5.45;;;4.60;;
43809;SDS011;29440;48.208;11.162;2024-03-02T07:57:48;6.13;;;4.50;;
43809;SDS011;29440;48.208;11.162;2024-03-02T08:00:15;4.90;;;4.40;;
43809;SDS011;29440;48.208;11.162;2024-03-02T08:02:40;5.38;;;4.28;;
43809;SDS011;29440;48.208;11.162;2024-03-02T08:05:09;5.30;;;4.47;;
43809;SDS011;29440;48.208;11.162;2024-03-02T08:07:34;5.38;;;4.35;;
43809;SDS011;29440;48.208;11.162;2024-03-02T08:10:00;4.28;;;3.88;;
43809;SDS011;29440;48.208;11.162;2024-03-02T08:12:26;5.25;;;4.72;;
43809;SDS011;29440;48.208;11.162;2024-03-02T08:14:51;5.40;;;4.85;;
43809;SDS011;29440;48.208;11.162;2024-03-02T08:17:17;5.72;;;5.13;;
43809;SDS011;29440;48.208;11.162;2024-03-02T08:19:42;5.60;;;4.68;;
43809;SDS011;29440;48.208;11.162;2024-03-02T08:22:09;5.65;;;4.78;;
43809;SDS011;29440;48.208;11.162;2024-03-02T08:24:35;5.10;;;4.60;;
43809;SDS011;29440;48.208;11.162;2024-03-02T08:27:01;6.38;;;5.03;;
43809;SDS011;29440;48.208;11.162;2024-03-02T08:29:27;5.55;;;4.65;;
43809;SDS011;29440;48.208;11.162;2024-03-02T08:31:53;5.78;;;4.90;;
43809;SDS011;29440;48.208;11.162;2024-03-02T08:34:19;4.97;;;4.30;;
43809;SDS011;29440;48.208;11.162;2024-03-02T08:36:45;4.65;;;4.10;;
43809;SDS011;29440;48.208;11.162;2024-03-02T08:39:11;4.40;;;3.95;;
43809;SDS011;29440;48.208;11.162;2024-03-02T08:41:41;5.07;;;4.40;;
43809;SDS011;29440;48.208;11.162;2024-03-02T08:44:09;4.38;;;3.38;;
43809;SDS011;29440;48.208;11.162;2024-03-02T08:46:34;4.80;;;4.05;;
43809;SDS011;29440;48.208;11.162;2024-03-02T08:49:00;3.80;;;3.45;;
43809;SDS011;29440;48.208;11.162;2024-03-02T08:51:26;3.72;;;3.33;;
43809;SDS011;29440;48.208;11.162;2024-03-02T08:53:51;3.72;;;3.33;;
43809;SDS011;29440;48.208;11.162;2024-03-02T08:56:17;3.63;;;3.22;;
43809;SDS011;29440;48.208;11.162;2024-03-02T08:58:43;5.30;;;3.90;;
43809;SDS011;29440;48.208;11.162;2024-03-02T09:01:09;3.20;;;2.83;;
43809;SDS011;29440;48.208;11.162;2024-03-02T09:03:36;3.80;;;3.00;;
43809;SDS011;29440;48.208;11.162;2024-03-02T09:06:02;4.63;;;3.35;;
43809;SDS011;29440;48.208;11.162;2024-03-02T09:08:28;4.03;;;3.08;;
43809;SDS011;29440;48.208;11.162;2024-03-02T09:10:54;3.50;;;3.03;;
43809;SDS011;29440;48.208;11.162;2024-03-02T09:13:20;3.13;;;2.70;;
43809;SDS011;29440;48.208;11.162;2024-03-02T09:15:45;4.13;;;3.17;;
43809;SDS011;29440;48.208;11.162;2024-03-02T09:18:11;4.18;;;3.22;;
43809;SDS011;29440;48.208;11.162;2024-03-02T09:20:37;4.90;;;3.75;;
43809;SDS011;29440;48.208;11.162;2024-03-02T09:23:02;4.95;;;3.22;;
43809;SDS011;29440;48.208;11.162;2024-03-02T09:25:28;4.53;;;3.30;;
43809;SDS011;29440;48.208;11.162;2024-03-02T09:27:53;5.70;;;4.05;;
43809;SDS011;29440;48.208;11.162;2024-03-02T09:30:22;5.10;;;4.28;;
43809;SDS011;29440;48.208;11.162;2024-03-02T09:32:48;4.63;;;3.70;;
43809;SDS011;29440;48.208;11.162;2024-03-02T09:35:16;5.13;;;3.90;;
43809;SDS011;29440;48.208;11.162;2024-03-02T09:37:41;6.05;;;4.05;;
43809;SDS011;29440;48.208;11.162;2024-03-02T09:40:09;4.28;;;3.33;;
43809;SDS011;29440;48.208;11.162;2024-03-02T09:42:35;4.80;;;3.25;;
43809;SDS011;29440;48.208;11.162;2024-03-02T09:45:02;6.10;;;4.10;;
43809;SDS011;29440;48.208;11.162;2024-03-02T09:47:27;6.03;;;3.85;;
43809;SDS011;29440;48.208;11.162;2024-03-02T09:49:53;5.88;;;3.80;;
43809;SDS011;29440;48.208;11.162;2024-03-02T09:52:22;8.70;;;3.97;;
43809;SDS011;29440;48.208;11.162;2024-03-02T09:54:48;10.77;;;3.78;;
43809;SDS011;29440;48.208;11.162;2024-03-02T09:57:14;5.88;;;4.07;;
43809;SDS011;29440;48.208;11.162;2024-03-02T09:59:40;5.70;;;4.18;;
43809;SDS011;29440;48.208;11.162;2024-03-02T10:02:06;6.57;;;3.78;;
43809;SDS011;29440;48.208;11.162;2024-03-02T10:04:32;6.15;;;4.72;;
43809;SDS011;29440;48.208;11.162;2024-03-02T10:07:15;6.82;;;4.45;;
43809;SDS011;29440;48.208;11.162;2024-03-02T10:09:41;7.15;;;4.25;;
43809;SDS011;29440;48.208;11.162;2024-03-02T10:12:08;9.32;;;5.05;;
43809;SDS011;29440;48.208;11.162;2024-03-02T10:14:34;11.88;;;5.07;;
43809;SDS011;29440;48.208;11.162;2024-03-02T10:17:05;8.43;;;5.60;;
43809;SDS011;29440;48.208;11.162;2024-03-02T10:19:32;7.05;;;4.70;;
43809;SDS011;29440;48.208;11.162;2024-03-02T10:21:59;9.73;;;5.60;;
43809;SDS011;29440;48.208;11.162;2024-03-02T10:24:27;6.20;;;4.72;;
43809;SDS011;29440;48.208;11.162;2024-03-02T10:26:59;10.90;;;5.07;;
43809;SDS011;29440;48.208;11.162;2024-03-02T10:29:24;8.13;;;4.72;;
43809;SDS011;29440;48.208;11.162;2024-03-02T10:31:53;8.00;;;4.78;;
43809;SDS011;29440;48.208;11.162;2024-03-02T10:34:19;6.38;;;4.35;;
43809;SDS011;29440;48.208;11.162;2024-03-02T10:36:47;7.05;;;3.60;;
43809;SDS011;29440;48.208;11.162;2024-03-02T10:39:13;4.93;;;2.88;;
43809;SDS011;29440;48.208;11.162;2024-03-02T10:41:41;6.00;;;3.13;;
43809;SDS011;29440;48.208;11.162;2024-03-02T10:44:09;6.53;;;3.70;;
43809;SDS011;29440;48.208;11.162;2024-03-02T10:46:35;6.80;;;4.60;;
43809;SDS011;29440;48.208;11.162;2024-03-02T10:49:02;7.45;;;4.35;;
43809;SDS011;29440;48.208;11.162;2024-03-02T10:51:30;9.77;;;5.55;;
43809;SDS011;29440;48.208;11.162;2024-03-02T10:54:00;12.55;;;7.07;;
43809;SDS011;29440;48.208;11.162;2024-03-02T10:56:39;10.32;;;6.65;;
43809;SDS011;29440;48.208;11.162;2024-03-02T11:01:58;11.50;;;7.68;;
43809;SDS011;29440;48.208;11.162;2024-03-02T11:04:25;12.02;;;8.38;;
43809;SDS011;29440;48.208;11.162;2024-03-02T11:07:04;13.18;;;8.18;;
43809;SDS011;29440;48.208;11.162;2024-03-02T11:09:35;14.05;;;7.40;;
43809;SDS011;29440;48.208;11.162;2024-03-02T11:14:40;9.45;;;6.57;;
43809;SDS011;29440;48.208;11.162;2024-03-02T11:17:10;10.50;;;6.72;;
43809;SDS011;29440;48.208;11.162;2024-03-02T11:19:38;13.55;;;7.47;;
43809;SDS011;29440;48.208;11.162;2024-03-02T11:22:05;11.57;;;8.00;;
43809;SDS011;29440;48.208;11.162;2024-03-02T11:24:31;12.02;;;7.20;;
43809;SDS011;29440;48.208;11.162;2024-03-02T11:26:58;10.63;;;6.38;;
43809;SDS011;29440;48.208;11.162;2024-03-02T11:32:04;13.43;;;7.97;;
43809;SDS011;29440;48.208;11.162;2024-03-02T11:34:40;17.05;;;9.20;;
43809;SDS011;29440;48.208;11.162;2024-03-02T11:37:11;14.40;;;8.18;;
43809;SDS011;29440;48.208;11.162;2024-03-02T11:39:38;11.60;;;6.80;;
43809;SDS011;29440;48.208;11.162;2024-03-02T11:42:07;14.73;;;8.60;;
43809;SDS011;29440;48.208;11.162;2024-03-02T11:44:34;14.07;;;8.63;;
43809;SDS011;29440;48.208;11.162;2024-03-02T11:47:02;12.50;;;7.88;;
43809;SDS011;29440;48.208;11.162;2024-03-02T11:52:08;12.70;;;7.40;;
43809;SDS011;29440;48.208;11.162;2024-03-02T11:54:36;12.82;;;7.63;;
43809;SDS011;29440;48.208;11.162;2024-03-02T11:57:08;15.25;;;8.63;;
43809;SDS011;29440;48.208;11.162;2024-03-02T11:59:34;16.02;;;8.48;;
43809;SDS011;29440;48.208;11.162;2024-03-02T12:04:51;12.32;;;7.03;;
43809;SDS011;29440;48.208;11.162;2024-03-02T12:07:23;13.63;;;7.72;;
43809;SDS011;29440;48.208;11.162;2024-03-02T12:09:49;13.18;;;7.95;;
43809;SDS011;29440;48.208;11.162;2024-03-02T12:12:24;13.02;;;7.57;;
43809;SDS011;29440;48.208;11.162;2024-03-02T12:14:50;14.35;;;6.68;;
43809;SDS011;29440;48.208;11.162;2024-03-02T12:17:17;13.35;;;6.57;;
43809;SDS011;29440;48.208;11.162;2024-03-02T12:19:43;11.13;;;6.07;;
43809;SDS011;29440;48.208;11.162;2024-03-02T12:22:09;7.78;;;4.75;;
43809;SDS011;29440;48.208;11.162;2024-03-02T12:24:34;12.07;;;6.30;;
43809;SDS011;29440;48.208;11.162;2024-03-02T12:27:00;12.98;;;7.78;;
43809;SDS011;29440;48.208;11.162;2024-03-02T12:29:26;14.35;;;7.40;;
43809;SDS011;29440;48.208;11.162;2024-03-02T12:31:52;11.75;;;6.93;;
43809;SDS011;29440;48.208;11.162;2024-03-02T12:34:18;14.25;;;6.85;;
43809;SDS011;29440;48.208;11.162;2024-03-02T12:36:45;12.73;;;7.47;;
43809;SDS011;29440;48.208;11.162;2024-03-02T12:39:13;15.20;;;8.13;;
43809;SDS011;29440;48.208;11.162;2024-03-02T12:41:39;16.67;;;8.60;;
43809;SDS011;29440;48.208;11.162;2024-03-02T12:44:06;13.05;;;7.82;;
43809;SDS011;29440;48.208;11.162;2024-03-02T12:46:31;14.25;;;7.80;;
43809;SDS011;29440;48.208;11.162;2024-03-02T12:48:58;17.88;;;8.45;;
43809;SDS011;29440;48.208;11.162;2024-03-02T12:51:27;16.75;;;8.57;;
43809;SDS011;29440;48.208;11.162;2024-03-02T12:53:53;17.13;;;8.88;;
43809;SDS011;29440;48.208;11.162;2024-03-02T12:56:22;16.52;;;8.98;;
43809;SDS011;29440;48.208;11.162;2024-03-02T12:58:53;16.67;;;8.43;;
43809;SDS011;29440;48.208;11.162;2024-03-02T13:01:19;18.23;;;9.90;;
43809;SDS011;29440;48.208;11.162;2024-03-02T13:03:45;17.00;;;9.70;;
43809;SDS011;29440;48.208;11.162;2024-03-02T13:06:12;17.05;;;9.38;;
43809;SDS011;29440;48.208;11.162;2024-03-02T13:08:38;13.95;;;8.43;;
43809;SDS011;29440;48.208;11.162;2024-03-02T13:11:05;17.63;;;9.90;;
43809;SDS011;29440;48.208;11.162;2024-03-02T13:13:31;17.13;;;9.93;;
43809;SDS011;29440;48.208;11.162;2024-03-02T13:15:58;20.33;;;9.52;;
43809;SDS011;29440;48.208;11.162;2024-03-02T13:18:23;13.40;;;9.05;;
43809;SDS011;29440;48.208;11.162;2024-03-02T13:20:49;16.90;;;10.82;;
43809;SDS011;29440;48.208;11.162;2024-03-02T13:23:14;18.95;;;10.85;;
43809;SDS011;29440;48.208;11.162;2024-03-02T13:25:40;16.38;;;9.68;;
43809;SDS011;29440;48.208;11.162;2024-03-02T13:28:06;13.27;;;7.60;;
43809;SDS011;29440;48.208;11.162;2024-03-02T13:30:32;20.83;;;10.85;;
43809;SDS011;29440;48.208;11.162;2024-03-02T13:32:58;24.60;;;10.90;;
43809;SDS011;29440;48.208;11.162;2024-03-02T13:35:23;16.90;;;11.20;;
43809;SDS011;29440;48.208;11.162;2024-03-02T13:37:49;18.52;;;11.15;;
43809;SDS011;29440;48.208;11.162;2024-03-02T13:40:15;21.27;;;11.18;;
43809;SDS011;29440;48.208;11.162;2024-03-02T13:42:44;20.80;;;12.32;;
43809;SDS011;29440;48.208;11.162;2024-03-02T13:45:14;21.48;;;12.25;;
43809;SDS011;29440;48.208;11.162;2024-03-02T13:47:39;24.08;;;12.02;;
43809;SDS011;29440;48.208;11.162;2024-03-02T13:50:05;21.08;;;11.00;;
43809;SDS011;29440;48.208;11.162;2024-03-02T13:52:32;21.48;;;11.15;;
43809;SDS011;29440;48.208;11.162;2024-03-02T13:54:57;21.33;;;10.77;;
43809;SDS011;29440;48.208;11.162;2024-03-02T13:57:23;19.58;;;11.93;;
43809;SDS011;29440;48.208;11.162;2024-03-02T13:59:49;18.58;;;10.48;;
43809;SDS011;29440;48.208;11.162;2024-03-02T14:02:15;16.48;;;9.45;;
43809;SDS011;29440;48.208;11.162;2024-03-02T14:04:41;15.23;;;8.77;;
43809;SDS011;29440;48.208;11.162;2024-03-02T14:07:06;17.48;;;10.90;;
43809;SDS011;29440;48.208;11.162;2024-03-02T14:09:32;17.48;;;9.25;;
43809;SDS011;29440;48.208;11.162;2024-03-02T14:11:58;15.73;;;8.82;;
43809;SDS011;29440;48.208;11.162;2024-03-02T14:14:25;15.88;;;9.18;;
43809;SDS011;29440;48.208;11.162;2024-03-02T14:16:52;13.20;;;6.78;;
43809;SDS011;29440;48.208;11.162;2024-03-02T14:19:18;17.08;;;9.20;;
43809;SDS011;29440;48.208;11.162;2024-03-02T14:21:44;16.35;;;9.80;;
43809;SDS011;29440;48.208;11.162;2024-03-02T14:24:10;16.52;;;9.07;;
43809;SDS011;29440;48.208;11.162;2024-03-02T14:29:22;15.18;;;9.00;;
43809;SDS011;29440;48.208;11.162;2024-03-02T14:31:48;18.38;;;10.32;;
43809;SDS011;29440;48.208;11.162;2024-03-02T14:34:14;15.35;;;9.43;;
43809;SDS011;29440;48.208;11.162;2024-03-02T14:36:40;13.45;;;8.35;;
43809;SDS011;29440;48.208;11.162;2024-03-02T14:39:08;15.15;;;8.43;;